Time;durP1;ratioP1;P1;durP2;ratioP2;P2;SDS_P1;SDS_P2;PMS_P1;PMS_P2;Temp;Humidity;BMP_temperature;BMP_pressure;BME280_temperature;BME280_humidity;BME280_pressure;Samples;Min_cycle;Max_cycle;Signal;HPM_P1;HPM_P2
2022/04/10 00:02:06;;;;;;;6.90;2.92;;;23.80;99.90;;;;;;5040252;28;20032;-65
2022/04/10 00:04:33;;;;;;;6.85;2.33;;;24.00;99.90;;;;;;5048260;28;20025;-64
2022/04/10 00:07:00;;;;;;;9.82;6.25;;;24.10;99.90;;;;;;5048921;28;20033;-68
2022/04/10 00:09:27;;;;;;;8.40;2.95;;;24.10;99.90;;;;;;5050275;28;20115;-68
2022/04/10 00:11:54;;;;;;;5.93;3.53;;;24.20;99.90;;;;;;5049656;28;20017;-67
2022/04/10 00:14:21;;;;;;;8.35;2.65;;;24.40;99.90;;;;;;5052457;28;20029;-65
2022/04/10 00:16:48;;;;;;;11.52;4.95;;;24.50;99.90;;;;;;5049182;28;20040;-65
2022/04/10 00:19:15;;;;;;;3.45;2.20;;;24.70;99.90;;;;;;5050783;28;20025;-66
2022/04/10 00:21:44;;;;;;;7.15;2.80;;;24.80;99.90;;;;;;5048090;28;20029;-66
2022/04/10 00:24:11;;;;;;;10.10;4.57;;;25.20;99.90;;;;;;5050685;28;20029;-65
2022/04/10 00:26:38;;;;;;;5.72;2.78;;;25.50;99.90;;;;;;5049594;28;20029;-64
2022/04/10 00:29:05;;;;;;;7.32;3.00;;;25.40;99.90;;;;;;5049658;28;20033;-66
2022/04/10 00:31:32;;;;;;;3.65;2.45;;;25.50;99.90;;;;;;5052635;28;20028;-66
2022/04/10 00:33:59;;;;;;;6.40;2.50;;;25.60;99.90;;;;;;5048729;28;20017;-67
2022/04/10 00:36:27;;;;;;;4.55;2.55;;;25.70;99.90;;;;;;5047723;28;20483;-68
2022/04/10 00:38:54;;;;;;;4.47;1.70;;;25.90;99.90;;;;;;5045294;28;20035;-67
2022/04/10 00:41:21;;;;;;;7.78;1.67;;;26.10;99.90;;;;;;5050786;28;20527;-68
2022/04/10 00:44:09;;;;;;;8.23;4.00;;;26.10;99.90;;;;;;5050326;28;20025;-66
2022/04/10 00:46:38;;;;;;;7.22;2.88;;;26.20;99.90;;;;;;5048676;28;20461;-66
2022/04/10 00:49:06;;;;;;;7.35;2.65;;;26.20;99.90;;;;;;5047970;28;20064;-66
2022/04/10 00:51:46;;;;;;;7.35;2.40;;;26.30;99.90;;;;;;5050040;28;20016;-66
2022/04/10 00:54:30;;;;;;;7.68;3.13;;;26.30;99.90;;;;;;5049305;28;20460;-67
2022/04/10 00:57:00;;;;;;;6.25;4.43;;;26.40;99.90;;;;;;5047585;28;20021;-65
2022/04/10 00:59:29;;;;;;;3.78;1.60;;;26.50;99.90;;;;;;5051023;28;20020;-67
2022/04/10 01:01:56;;;;;;;4.47;1.70;;;26.80;99.90;;;;;;5047610;28;20025;-67
2022/04/10 01:04:23;;;;;;;6.60;1.70;;;26.60;99.90;;;;;;5039251;28;20513;-68
2022/04/10 01:06:52;;;;;;;5.47;2.20;;;26.60;99.90;;;;;;5043999;28;20031;-70
2022/04/10 01:09:20;;;;;;;6.88;1.40;;;26.80;99.90;;;;;;5045352;28;20114;-67
2022/04/10 01:11:48;;;;;;;8.25;5.85;;;26.80;99.90;;;;;;5044010;28;20025;-68
2022/04/10 01:14:15;;;;;;;7.13;2.13;;;26.50;99.90;;;;;;5057553;28;20025;-67
2022/04/10 01:16:43;;;;;;;6.15;2.72;;;26.40;99.90;;;;;;5042835;28;20967;-68
2022/04/10 01:19:11;;;;;;;6.35;2.00;;;26.30;99.90;;;;;;5042370;28;20028;-67
2022/04/10 01:21:44;;;;;;;8.25;2.05;;;25.90;99.90;;;;;;5042107;28;20083;-68
2022/04/10 01:24:14;;;;;;;5.63;1.63;;;26.00;99.90;;;;;;5044365;28;20043;-68
2022/04/10 01:26:43;;;;;;;5.00;1.60;;;26.30;99.90;;;;;;5043714;28;20056;-67
2022/04/10 01:29:15;;;;;;;6.18;2.08;;;26.70;99.90;;;;;;5044250;28;20029;-68
2022/04/10 01:31:45;;;;;;;4.95;1.90;;;26.30;99.90;;;;;;5043462;28;20033;-67
2022/04/10 01:34:14;;;;;;;6.63;2.28;;;25.80;99.90;;;;;;5043189;28;20032;-67
2022/04/10 01:36:43;;;;;;;6.32;2.38;;;26.00;99.90;;;;;;5040418;28;20048;-68
2022/04/10 01:39:11;;;;;;;5.22;1.80;;;26.40;99.90;;;;;;5046047;28;20397;-67
2022/04/10 01:41:39;;;;;;;5.30;2.60;;;26.80;99.90;;;;;;5044638;28;20040;-66
2022/04/10 01:44:08;;;;;;;6.20;3.42;;;27.30;99.90;;;;;;5044828;28;20021;-69
2022/04/10 01:46:36;;;;;;;5.63;2.42;;;27.60;99.90;;;;;;5044426;28;20054;-66
2022/04/10 01:49:05;;;;;;;7.70;2.65;;;27.70;99.90;;;;;;5045688;28;20040;-68
2022/04/10 01:51:33;;;;;;;9.40;3.25;;;27.40;99.90;;;;;;5046135;28;20483;-66
2022/04/10 01:54:00;;;;;;;3.33;1.70;;;27.60;99.90;;;;;;5045712;28;20140;-65
2022/04/10 01:56:27;;;;;;;5.45;1.77;;;27.90;99.90;;;;;;5045817;28;20028;-67
2022/04/10 01:58:54;;;;;;;5.38;2.97;;;28.10;99.90;;;;;;5045065;28;20025;-66
2022/04/10 02:01:23;;;;;;;5.57;2.90;;;28.20;99.90;;;;;;5046296;28;20037;-65
2022/04/10 02:03:50;;;;;;;6.75;2.97;;;28.20;99.90;;;;;;5045150;28;20029;-67
2022/04/10 02:06:18;;;;;;;6.93;1.95;;;28.50;99.90;;;;;;5044285;28;20029;-67
2022/04/10 02:08:46;;;;;;;4.97;2.05;;;28.50;99.90;;;;;;5042618;28;20051;-67
2022/04/10 02:11:14;;;;;;;4.10;1.58;;;28.80;99.90;;;;;;5046478;28;20591;-65
2022/04/10 02:13:43;;;;;;;3.10;1.50;;;28.60;99.90;;;;;;5043887;28;20150;-67
2022/04/10 02:16:14;;;;;;;3.30;1.45;;;28.60;99.90;;;;;;5045926;28;20028;-65
2022/04/10 02:18:42;;;;;;;4.78;1.67;;;28.70;99.90;;;;;;5044212;28;20483;-67
2022/04/10 02:21:10;;;;;;;4.65;1.70;;;28.90;99.90;;;;;;5046074;28;20078;-67
2022/04/10 02:23:38;;;;;;;8.05;5.15;;;29.00;99.90;;;;;;5043747;28;20025;-64
2022/04/10 02:26:06;;;;;;;5.00;1.92;;;28.90;99.90;;;;;;5044563;28;20063;-67
2022/04/10 02:28:33;;;;;;;5.18;3.25;;;29.00;99.90;;;;;;5045953;28;20044;-67
2022/04/10 02:31:00;;;;;;;4.82;2.28;;;28.90;99.90;;;;;;5046453;28;20029;-67
2022/04/10 02:33:27;;;;;;;5.68;2.67;;;29.00;99.90;;;;;;5043792;28;20119;-66
2022/04/10 02:35:54;;;;;;;5.03;2.47;;;29.20;99.90;;;;;;5044026;28;20537;-64
2022/04/10 02:38:21;;;;;;;3.72;1.90;;;29.30;99.90;;;;;;5046080;28;20392;-64
2022/04/10 02:40:48;;;;;;;5.25;2.33;;;29.20;99.90;;;;;;5045079;28;20560;-68
2022/04/10 02:43:15;;;;;;;6.03;1.75;;;29.30;99.70;;;;;;5043671;28;20086;-67
2022/04/10 02:45:42;;;;;;;5.32;2.72;;;29.20;99.90;;;;;;5047045;28;20025;-67
2022/04/10 02:48:10;;;;;;;6.15;2.65;;;29.20;99.90;;;;;;5046498;28;20029;-67
2022/04/10 02:50:38;;;;;;;6.85;4.07;;;29.40;99.90;;;;;;5046215;28;20032;-68
2022/04/10 02:53:06;;;;;;;4.20;1.63;;;29.30;99.90;;;;;;5045929;28;20033;-67
2022/04/10 02:55:33;;;;;;;4.97;2.72;;;29.30;99.70;;;;;;5044598;28;20069;-66
2022/04/10 02:58:00;;;;;;;5.75;2.80;;;29.60;99.90;;;;;;5044543;28;20025;-68
2022/04/10 03:00:27;;;;;;;3.47;1.85;;;29.50;99.90;;;;;;5045490;28;20238;-64
2022/04/10 03:02:54;;;;;;;4.53;2.00;;;29.60;99.90;;;;;;5044550;28;20043;-64
2022/04/10 03:05:21;;;;;;;6.50;2.40;;;29.40;99.90;;;;;;5044165;28;20036;-64
2022/04/10 03:07:48;;;;;;;6.13;3.40;;;29.60;99.90;;;;;;5045545;28;20025;-68
2022/04/10 03:10:15;;;;;;;3.58;2.20;;;29.70;99.90;;;;;;5044841;28;20108;-66
2022/04/10 03:12:42;;;;;;;3.30;1.83;;;29.80;98.90;;;;;;5046254;28;20029;-69
2022/04/10 03:15:10;;;;;;;11.10;5.90;;;29.80;99.10;;;;;;5043861;28;20017;-67
2022/04/10 03:17:37;;;;;;;6.22;2.15;;;29.30;99.70;;;;;;5042625;28;20384;-64
2022/04/10 03:20:04;;;;;;;4.68;1.70;;;29.30;99.80;;;;;;5047029;28;20021;-64
2022/04/10 03:22:31;;;;;;;3.63;1.85;;;29.20;99.60;;;;;;5047635;28;20057;-66
2022/04/10 03:24:58;;;;;;;6.75;1.92;;;29.20;99.30;;;;;;5046539;28;20076;-64
2022/04/10 03:27:25;;;;;;;4.43;1.90;;;29.30;99.50;;;;;;5048063;28;20021;-65
2022/04/10 03:29:52;;;;;;;5.05;1.85;;;29.50;99.50;;;;;;5046317;28;20135;-66
2022/04/10 03:32:20;;;;;;;2.60;1.77;;;29.60;99.60;;;;;;5046794;28;20048;-69
2022/04/10 03:34:47;;;;;;;6.10;2.10;;;29.80;99.70;;;;;;5045891;28;20087;-65
2022/04/10 03:37:14;;;;;;;2.65;1.70;;;29.80;99.30;;;;;;5045983;28;20032;-67
2022/04/10 03:39:41;;;;;;;5.05;2.28;;;29.90;99.10;;;;;;5046698;28;20032;-68
2022/04/10 03:42:08;;;;;;;3.45;2.25;;;29.80;99.00;;;;;;5045396;28;20036;-68
2022/04/10 03:44:35;;;;;;;4.05;2.40;;;29.80;98.80;;;;;;5043442;28;20032;-65
2022/04/10 03:47:02;;;;;;;6.32;2.42;;;29.70;99.10;;;;;;5044749;28;20029;-66
2022/04/10 03:49:29;;;;;;;4.38;2.03;;;29.80;98.90;;;;;;5046246;28;20383;-65
2022/04/10 03:51:56;;;;;;;4.65;2.20;;;29.90;98.80;;;;;;5045622;28;20395;-68
2022/04/10 03:54:23;;;;;;;3.85;2.03;;;30.10;98.40;;;;;;5045922;28;20017;-65
2022/04/10 03:56:49;;;;;;;3.67;2.17;;;30.10;97.70;;;;;;5045395;28;20151;-65
2022/04/10 03:59:17;;;;;;;5.13;1.98;;;30.00;97.50;;;;;;5046859;28;20021;-68
2022/04/10 04:01:43;;;;;;;6.25;3.83;;;29.90;98.20;;;;;;5044829;28;20074;-65
2022/04/10 04:04:10;;;;;;;6.60;2.58;;;29.70;98.20;;;;;;5045485;28;20024;-68
2022/04/10 04:06:37;;;;;;;2.22;1.75;;;29.60;97.80;;;;;;5046466;28;20021;-68
2022/04/10 04:09:04;;;;;;;4.07;1.90;;;29.70;96.80;;;;;;5045835;28;20073;-68
2022/04/10 04:11:31;;;;;;;3.78;2.30;;;30.00;97.20;;;;;;5045893;28;20029;-68
2022/04/10 04:13:58;;;;;;;10.82;8.75;;;30.10;97.50;;;;;;5061268;28;20460;-65
2022/04/10 04:16:25;;;;;;;3.22;2.33;;;30.10;97.40;;;;;;5046428;28;20078;-69
2022/04/10 04:18:52;;;;;;;5.45;2.38;;;30.10;97.40;;;;;;5047384;28;20029;-68
2022/04/10 04:21:19;;;;;;;3.72;2.42;;;30.30;97.20;;;;;;5046019;28;20082;-66
2022/04/10 04:23:46;;;;;;;3.55;2.30;;;30.20;95.10;;;;;;5044543;28;20117;-66
2022/04/10 04:26:13;;;;;;;3.63;2.50;;;30.00;96.30;;;;;;5044087;28;20082;-66
2022/04/10 04:28:39;;;;;;;4.22;3.30;;;30.00;96.60;;;;;;5045134;28;20033;-69
2022/04/10 04:31:06;;;;;;;4.68;2.38;;;30.10;96.50;;;;;;5047509;28;20083;-72
2022/04/10 04:33:33;;;;;;;5.25;3.53;;;30.10;96.20;;;;;;5044790;28;20016;-67
2022/04/10 04:36:00;;;;;;;2.60;1.77;;;30.00;96.80;;;;;;5032665;28;20442;-69
2022/04/10 04:38:27;;;;;;;4.05;2.03;;;30.20;95.70;;;;;;5042046;28;20087;-68
2022/04/10 04:40:54;;;;;;;2.97;1.75;;;30.30;96.40;;;;;;5045425;28;20112;-68
2022/04/10 04:43:21;;;;;;;3.65;1.70;;;30.20;96.50;;;;;;5043126;28;20078;-68
2022/04/10 04:45:48;;;;;;;5.03;2.00;;;30.20;96.10;;;;;;5041257;28;20063;-69
2022/04/10 04:48:15;;;;;;;3.03;1.50;;;30.10;96.50;;;;;;5041439;28;20045;-71
2022/04/10 04:50:45;;;;;;;4.10;2.15;;;30.00;96.70;;;;;;5043156;28;20183;-65
2022/04/10 04:53:12;;;;;;;3.00;1.60;;;29.90;96.80;;;;;;5042258;28;20044;-68
2022/04/10 04:55:39;;;;;;;2.95;1.40;;;29.80;97.30;;;;;;5040848;28;20025;-66
2022/04/10 04:58:06;;;;;;;2.53;1.42;;;29.90;96.40;;;;;;5042739;28;20057;-69
2022/04/10 05:00:33;;;;;;;4.32;3.92;;;30.00;95.80;;;;;;5041384;28;20051;-70
2022/04/10 05:03:00;;;;;;;3.80;2.65;;;29.80;95.80;;;;;;5042146;28;20268;-67
2022/04/10 05:05:27;;;;;;;4.82;3.28;;;30.00;96.00;;;;;;5043250;28;20437;-67
2022/04/10 05:07:54;;;;;;;6.95;2.78;;;30.10;96.20;;;;;;5042815;28;20021;-66
2022/04/10 05:10:21;;;;;;;3.25;1.77;;;30.10;95.90;;;;;;5044540;28;20025;-68
2022/04/10 05:12:48;;;;;;;2.38;1.50;;;29.90;96.60;;;;;;5042033;28;20033;-70
2022/04/10 05:15:15;;;;;;;4.68;2.05;;;30.00;95.70;;;;;;5041906;28;20032;-67
2022/04/10 05:17:42;;;;;;;3.97;2.20;;;30.10;97.00;;;;;;5042220;28;20487;-69
2022/04/10 05:20:10;;;;;;;4.90;1.98;;;29.90;98.40;;;;;;5041232;28;20021;-65
2022/04/10 05:22:36;;;;;;;6.32;1.92;;;30.00;98.40;;;;;;5042071;28;20025;-67
2022/04/10 05:25:04;;;;;;;6.55;2.88;;;29.60;98.60;;;;;;5041758;28;20083;-70
2022/04/10 05:27:31;;;;;;;4.45;2.00;;;30.00;97.90;;;;;;5040612;28;20025;-70
2022/04/10 05:29:57;;;;;;;5.00;2.35;;;30.20;97.40;;;;;;5042283;28;20110;-68
2022/04/10 05:32:24;;;;;;;2.80;1.88;;;30.30;97.70;;;;;;5043155;28;20630;-66
2022/04/10 05:34:51;;;;;;;2.40;1.90;;;30.30;97.70;;;;;;5038329;28;20465;-69
2022/04/10 05:37:18;;;;;;;4.38;2.00;;;30.20;98.60;;;;;;5040637;28;20068;-66
2022/04/10 05:39:45;;;;;;;4.72;1.77;;;29.90;99.00;;;;;;5040673;28;20037;-68
2022/04/10 05:42:12;;;;;;;6.00;2.20;;;29.70;98.50;;;;;;5042997;28;20029;-69
2022/04/10 05:44:39;;;;;;;3.28;1.95;;;29.70;98.60;;;;;;5039092;28;20048;-66
2022/04/10 05:47:06;;;;;;;5.13;2.60;;;29.70;99.70;;;;;;4342103;28;10000839;-69
2022/04/10 05:49:33;;;;;;;4.30;2.00;;;29.80;98.60;;;;;;5038687;28;20274;-68
2022/04/10 05:52:00;;;;;;;4.35;2.20;;;29.40;99.90;;;;;;5039846;28;20132;-67
2022/04/10 05:54:27;;;;;;;6.20;2.00;;;28.80;99.90;;;;;;5040202;28;20028;-69
2022/04/10 05:56:55;;;;;;;3.22;2.15;;;28.50;99.90;;;;;;5038480;28;20533;-68
2022/04/10 05:59:22;;;;;;;3.42;2.05;;;28.40;99.90;;;;;;5037586;28;20057;-70
2022/04/10 06:01:49;;;;;;;4.03;1.70;;;29.00;99.90;;;;;;5038289;28;20098;-66
2022/04/10 06:04:17;;;;;;;3.70;2.25;;;29.60;99.90;;;;;;5035243;28;20039;-68
2022/04/10 06:06:44;;;;;;;4.75;1.90;;;29.90;99.90;;;;;;5032963;28;20079;-66
2022/04/10 06:09:11;;;;;;;2.92;1.80;;;30.00;99.10;;;;;;5033101;28;20040;-69
2022/04/10 06:11:38;;;;;;;3.90;1.98;;;30.40;98.70;;;;;;5036716;28;20025;-69
2022/04/10 06:14:05;;;;;;;4.25;1.83;;;30.50;99.00;;;;;;5035702;28;20048;-67
2022/04/10 06:16:32;;;;;;;4.57;1.73;;;30.30;99.30;;;;;;5033032;28;20025;-66
2022/04/10 06:18:58;;;;;;;3.95;1.63;;;29.80;99.50;;;;;;5036404;28;20074;-70
2022/04/10 06:21:25;;;;;;;6.00;2.10;;;29.00;99.90;;;;;;5036969;28;20028;-70
2022/04/10 06:23:52;;;;;;;5.60;1.90;;;28.30;99.90;;;;;;5040276;28;20028;-67
2022/04/10 06:26:20;;;;;;;5.38;2.60;;;28.30;99.90;;;;;;5037495;28;20116;-67
2022/04/10 06:28:47;;;;;;;10.30;4.07;;;28.80;99.90;;;;;;5035490;28;20535;-66
2022/04/10 06:31:14;;;;;;;6.78;3.30;;;29.00;99.90;;;;;;5036084;28;20029;-67
2022/04/10 06:33:40;;;;;;;4.03;2.22;;;28.90;99.90;;;;;;5034855;28;20186;-69
2022/04/10 06:36:07;;;;;;;5.00;2.10;;;28.50;99.90;;;;;;5037132;28;20025;-67
2022/04/10 06:38:34;;;;;;;4.43;2.28;;;28.00;99.90;;;;;;5036901;28;20162;-69
2022/04/10 06:41:02;;;;;;;5.28;2.30;;;27.40;99.90;;;;;;5037841;28;20566;-70
2022/04/10 06:43:29;;;;;;;4.72;1.95;;;27.30;99.90;;;;;;5032082;28;20137;-70
2022/04/10 06:45:56;;;;;;;3.45;1.80;;;27.60;99.90;;;;;;5037672;28;20033;-70
2022/04/10 06:48:22;;;;;;;5.80;1.83;;;28.10;99.90;;;;;;5042369;28;20145;-66
2022/04/10 06:50:49;;;;;;;4.05;1.73;;;28.50;99.90;;;;;;5040590;28;20021;-68
2022/04/10 06:53:16;;;;;;;4.72;1.98;;;29.10;99.90;;;;;;5042419;28;20040;-67
2022/04/10 06:55:43;;;;;;;3.47;1.80;;;29.20;99.90;;;;;;5043675;28;20506;-67
2022/04/10 06:58:10;;;;;;;4.07;1.70;;;29.30;99.90;;;;;;5045586;28;20029;-68
2022/04/10 07:00:38;;;;;;;4.20;1.90;;;29.40;99.90;;;;;;5042870;28;20029;-68
2022/04/10 07:03:05;;;;;;;4.80;2.00;;;29.40;99.90;;;;;;5044940;28;20032;-68
2022/04/10 07:05:32;;;;;;;5.22;2.10;;;29.60;99.90;;;;;;5043588;28;20033;-68
2022/04/10 07:07:59;;;;;;;4.75;2.03;;;29.70;99.90;;;;;;5040637;28;20179;-67
2022/04/10 07:10:28;;;;;;;4.20;2.08;;;29.60;99.90;;;;;;5040906;28;20123;-68
2022/04/10 07:12:55;;;;;;;4.72;1.98;;;29.50;99.90;;;;;;5042523;28;20121;-68
2022/04/10 07:15:22;;;;;;;5.82;1.95;;;29.10;99.90;;;;;;5040332;28;20047;-68
2022/04/10 07:17:49;;;;;;;3.88;1.92;;;28.70;99.90;;;;;;5041575;28;20069;-68
2022/04/10 07:20:16;;;;;;;4.40;1.77;;;28.40;99.90;;;;;;5040779;28;20496;-73
2022/04/10 07:25:28;;;;;;;4.03;1.73;;;27.20;99.90;;;;;;5044951;28;20522;-68
2022/04/10 07:27:55;;;;;;;3.40;1.73;;;26.80;99.90;;;;;;5043098;28;20025;-67
2022/04/10 07:30:22;;;;;;;4.57;2.03;;;26.20;99.90;;;;;;5043677;28;20503;-68
2022/04/10 07:32:57;;;;;;;6.40;2.78;;;26.00;99.90;;;;;;5058759;28;20727;-70
2022/04/10 07:35:27;;;;;;;5.30;2.33;;;25.60;99.90;;;;;;5043761;28;20021;-67
2022/04/10 07:37:54;;;;;;;7.88;2.90;;;25.10;99.90;;;;;;5040389;28;20103;-69
2022/04/10 07:40:21;;;;;;;5.47;2.45;;;24.70;99.90;;;;;;5042415;28;20025;-68
2022/04/10 07:42:49;;;;;;;5.60;3.33;;;24.50;99.90;;;;;;5040065;28;20921;-67
2022/04/10 07:48:02;;;;;;;5.70;2.60;;;24.20;99.90;;;;;;5042144;28;20094;-69
2022/04/10 07:50:30;;;;;;;4.65;2.58;;;23.90;99.90;;;;;;5040905;28;20981;-73
2022/04/10 07:52:57;;;;;;;4.93;2.10;;;23.90;99.90;;;;;;5043253;28;21111;-65
2022/04/10 07:55:25;;;;;;;5.93;3.28;;;23.80;99.90;;;;;;5042241;28;20036;-70
2022/04/10 07:57:52;;;;;;;6.85;3.22;;;23.50;99.90;;;;;;5037472;28;20025;-66
2022/04/10 08:00:19;;;;;;;3.85;2.10;;;23.20;99.90;;;;;;5042140;28;20117;-67
2022/04/10 08:02:48;;;;;;;6.18;2.13;;;23.10;99.90;;;;;;5040613;28;20455;-72
2022/04/10 08:05:16;;;;;;;10.05;2.92;;;23.10;99.90;;;;;;5040832;28;20032;-66
2022/04/10 08:07:44;;;;;;;15.25;9.70;;;23.10;99.90;;;;;;5041084;28;20455;-65
2022/04/10 08:10:12;;;;;;;13.13;6.13;;;22.80;99.90;;;;;;5039761;28;20025;-66
2022/04/10 08:12:40;;;;;;;6.78;3.78;;;22.60;99.90;;;;;;5043806;28;20024;-70
2022/04/10 08:15:08;;;;;;;10.07;3.80;;;22.50;99.90;;;;;;5043843;28;20017;-71
2022/04/10 08:17:35;;;;;;;7.43;3.78;;;22.50;99.90;;;;;;5044276;28;20036;-72
2022/04/10 08:20:04;;;;;;;8.77;4.25;;;22.60;99.90;;;;;;5042392;28;20033;-65
2022/04/10 08:22:34;;;;;;;10.90;3.70;;;22.50;99.90;;;;;;5042137;28;20029;-71
2022/04/10 08:25:09;;;;;;;6.80;3.15;;;22.50;99.90;;;;;;5041841;28;20053;-66
2022/04/10 08:27:37;;;;;;;7.47;3.00;;;22.50;99.90;;;;;;5043476;28;20395;-68
2022/04/10 08:30:09;;;;;;;5.85;2.25;;;22.60;99.90;;;;;;5044406;28;20033;-71
2022/04/10 08:32:42;;;;;;;7.63;2.10;;;22.60;99.90;;;;;;5044064;28;20687;-65
2022/04/10 08:35:10;;;;;;;6.97;2.47;;;22.40;99.90;;;;;;5044098;28;20032;-66
2022/04/10 08:37:37;;;;;;;7.55;2.45;;;22.30;99.90;;;;;;5043599;28;20041;-70
2022/04/10 08:40:05;;;;;;;5.50;2.30;;;22.10;99.90;;;;;;5043345;28;20060;-69
2022/04/10 08:42:32;;;;;;;4.43;1.63;;;22.00;99.90;;;;;;5043140;28;20097;-66
2022/04/10 08:45:00;;;;;;;4.50;2.10;;;21.90;99.90;;;;;;5041718;28;20066;-66
2022/04/10 08:47:29;;;;;;;6.35;2.40;;;22.00;99.90;;;;;;5042954;28;20654;-71
2022/04/10 08:49:57;;;;;;;6.10;2.05;;;21.90;99.90;;;;;;5043142;28;20033;-66
2022/04/10 08:52:24;;;;;;;6.68;2.35;;;22.00;99.90;;;;;;5044260;28;20021;-69
2022/04/10 08:54:51;;;;;;;6.03;2.00;;;21.90;99.90;;;;;;5042475;28;20021;-69
2022/04/10 08:57:18;;;;;;;10.93;2.20;;;21.70;99.90;;;;;;5044048;28;20053;-69
2022/04/10 08:59:45;;;;;;;5.82;2.15;;;21.50;99.90;;;;;;5042413;28;20063;-66
2022/04/10 09:02:13;;;;;;;5.05;1.80;;;21.60;99.90;;;;;;5042990;28;20036;-69
2022/04/10 09:04:41;;;;;;;5.70;1.70;;;21.60;99.90;;;;;;5043003;28;20021;-70
2022/04/10 09:07:12;;;;;;;5.63;2.17;;;21.50;99.90;;;;;;5042574;28;20115;-71
2022/04/10 09:09:52;;;;;;;4.80;2.05;;;21.40;99.90;;;;;;5041137;28;20033;-68
2022/04/10 09:12:19;;;;;;;6.63;1.98;;;21.30;99.90;;;;;;5041399;28;20052;-65
2022/04/10 09:14:47;;;;;;;6.43;2.00;;;21.30;99.90;;;;;;5039425;28;20025;-68
2022/04/10 09:17:15;;;;;;;9.40;1.90;;;21.30;99.90;;;;;;5041193;28;20250;-71
2022/04/10 09:19:49;;;;;;;7.53;2.10;;;21.40;99.90;;;;;;5039696;28;20040;-65
2022/04/10 09:22:26;;;;;;;6.90;2.60;;;21.50;99.90;;;;;;5041150;28;20573;-71
2022/04/10 09:25:13;;;;;;;5.82;2.67;;;21.50;99.90;;;;;;5040580;28;20329;-66
2022/04/10 09:27:43;;;;;;;4.10;2.00;;;21.40;99.90;;;;;;5040248;28;20502;-66
2022/04/10 09:30:12;;;;;;;8.52;2.40;;;21.30;99.90;;;;;;5040676;28;20407;-65
2022/04/10 09:32:52;;;;;;;5.65;2.42;;;21.30;99.90;;;;;;5036681;28;20615;-68
2022/04/10 09:35:21;;;;;;;6.45;1.70;;;21.30;99.90;;;;;;5036356;28;20079;-65
2022/04/10 09:37:53;;;;;;;9.15;2.38;;;21.20;99.90;;;;;;5037415;28;20123;-68
2022/04/10 09:40:24;;;;;;;4.27;1.70;;;21.20;99.90;;;;;;5037345;28;20024;-69
2022/04/10 09:43:01;;;;;;;6.32;1.80;;;21.10;99.90;;;;;;5037151;28;20021;-68
2022/04/10 09:45:32;;;;;;;6.70;1.90;;;21.00;99.90;;;;;;5037358;28;20487;-66
2022/04/10 09:48:16;;;;;;;9.63;2.00;;;20.90;99.90;;;;;;5037805;28;20025;-67
2022/04/10 09:50:43;;;;;;;8.20;2.35;;;20.90;99.90;;;;;;5037853;28;20091;-67
2022/04/10 09:53:11;;;;;;;4.43;1.73;;;20.80;99.90;;;;;;5037964;28;20044;-68
2022/04/10 09:55:41;;;;;;;5.68;2.47;;;20.80;99.90;;;;;;5038881;28;20133;-68
2022/04/10 09:58:10;;;;;;;7.22;2.63;;;20.90;99.90;;;;;;5038781;28;20021;-67
2022/04/10 10:00:44;;;;;;;5.60;2.40;;;20.80;99.90;;;;;;5036418;28;20095;-64
2022/04/10 10:03:11;;;;;;;10.52;2.33;;;20.70;99.90;;;;;;5036910;28;20363;-69
2022/04/10 10:05:38;;;;;;;5.63;2.20;;;20.70;99.90;;;;;;5037673;28;20032;-66
2022/04/10 10:08:07;;;;;;;5.35;2.08;;;20.60;99.90;;;;;;5036215;28;20025;-65
2022/04/10 10:10:36;;;;;;;5.97;1.83;;;20.60;99.90;;;;;;5034557;28;20373;-69
2022/04/10 10:13:08;;;;;;;5.95;2.08;;;20.40;99.90;;;;;;5037388;28;20115;-65
2022/04/10 10:15:36;;;;;;;6.35;2.08;;;20.20;99.90;;;;;;5037818;28;20032;-64
2022/04/10 10:18:05;;;;;;;8.02;2.50;;;20.20;99.90;;;;;;5037298;28;20059;-66
2022/04/10 10:20:33;;;;;;;8.45;2.58;;;20.20;99.90;;;;;;5035277;28;20047;-66
2022/04/10 10:23:08;;;;;;;3.20;1.73;;;20.10;99.90;;;;;;5039091;28;20035;-67
2022/04/10 10:25:36;;;;;;;7.05;2.13;;;20.00;99.90;;;;;;5038744;28;20514;-66
2022/04/10 10:28:21;;;;;;;12.25;7.53;;;19.90;99.90;;;;;;5037412;28;20036;-68
2022/04/10 10:30:58;;;;;;;6.80;2.13;;;19.80;99.90;;;;;;5036274;28;20453;-70
2022/04/10 10:33:30;;;;;;;6.07;2.03;;;19.90;99.90;;;;;;5039823;28;20103;-70
2022/04/10 10:36:01;;;;;;;6.35;2.47;;;20.10;99.90;;;;;;5037727;28;20120;-71
2022/04/10 10:38:30;;;;;;;6.40;2.05;;;20.00;99.90;;;;;;5049962;22;20375;-69
2022/04/10 10:41:18;;;;;;;10.75;2.10;;;20.10;99.90;;;;;;4999704;28;20169;-70
2022/04/10 10:43:46;;;;;;;6.95;2.17;;;20.00;99.90;;;;;;4998307;28;20500;-71
2022/04/10 10:46:28;;;;;;;9.90;2.90;;;19.90;99.90;;;;;;4996228;28;20129;-67
2022/04/10 10:49:14;;;;;;;5.53;2.40;;;20.00;99.90;;;;;;4998559;28;20037;-69
2022/04/10 10:51:54;;;;;;;3.65;1.70;;;20.10;99.90;;;;;;4999455;28;20018;-69
2022/04/10 10:54:34;;;;;;;6.35;2.08;;;20.10;99.90;;;;;;4998161;28;20554;-70
2022/04/10 10:57:41;;;;;;;8.45;2.75;;;19.90;99.90;;;;;;4996911;28;20084;-70
2022/04/10 11:00:15;;;;;;;7.97;2.25;;;19.80;99.90;;;;;;4998115;28;20079;-70
2022/04/10 11:02:51;;;;;;;5.43;2.45;;;19.70;99.90;;;;;;4996073;28;20033;-70
2022/04/10 11:05:27;;;;;;;7.82;1.98;;;19.50;99.90;;;;;;4997199;28;20022;-71
2022/04/10 11:08:12;;;;;;;8.88;2.83;;;19.30;99.90;;;;;;4998703;28;20136;-67
2022/04/10 11:11:03;;;;;;;4.45;1.90;;;19.50;99.90;;;;;;4998230;28;20026;-71
2022/04/10 11:13:48;;;;;;;7.45;2.40;;;19.60;99.90;;;;;;4936703;28;20137;-66
2022/04/10 11:16:15;;;;;;;8.02;2.45;;;19.40;99.90;;;;;;4937004;28;20043;-69
2022/04/10 11:18:50;;;;;;;6.50;2.60;;;19.20;99.90;;;;;;4937056;28;20194;-66
2022/04/10 11:21:21;;;;;;;8.50;2.67;;;19.10;99.90;;;;;;4935962;28;20039;-68
2022/04/10 11:23:49;;;;;;;8.40;3.08;;;18.90;99.90;;;;;;4935846;28;20031;-68
2022/04/10 11:26:21;;;;;;;12.75;8.05;;;18.90;99.90;;;;;;4936608;28;20545;-68
2022/04/10 11:28:57;;;;;;;6.10;3.33;;;18.80;99.90;;;;;;4936340;28;20494;-68
2022/04/10 11:31:44;;;;;;;9.80;4.40;;;18.80;99.90;;;;;;4937202;28;20425;-68
2022/04/10 11:34:25;;;;;;;10.35;4.40;;;18.70;99.90;;;;;;4937261;28;20034;-68
2022/04/10 11:36:55;;;;;;;7.07;3.47;;;18.60;99.90;;;;;;4936544;28;20047;-68
2022/04/10 11:39:28;;;;;;;8.68;2.95;;;18.60;99.90;;;;;;4936182;28;20122;-67
2022/04/10 11:41:59;;;;;;;8.80;3.58;;;18.50;99.90;;;;;;4939999;28;20046;-67
2022/04/10 11:44:27;;;;;;;6.68;2.88;;;18.50;99.90;;;;;;4937361;28;20031;-64
2022/04/10 11:46:54;;;;;;;9.98;4.20;;;18.40;99.90;;;;;;4939138;28;20027;-67
2022/04/10 11:49:21;;;;;;;7.80;2.65;;;18.40;99.90;;;;;;4924167;29;20075;-67
2022/04/10 11:52:00;;;;;;;7.88;3.72;;;18.30;99.90;;;;;;4997318;28;20029;-68
2022/04/10 11:54:36;;;;;;;12.90;6.68;;;18.30;99.90;;;;;;4996306;28;20033;-66
2022/04/10 11:57:05;;;;;;;7.22;2.50;;;18.30;99.90;;;;;;4997741;28;20033;-66
2022/04/10 11:59:37;;;;;;;11.25;3.50;;;18.20;99.90;;;;;;5000092;28;20636;-65
2022/04/10 12:02:11;;;;;;;7.60;2.67;;;18.20;99.90;;;;;;4996643;28;20025;-68
2022/04/10 12:04:40;;;;;;;5.63;2.30;;;18.20;99.90;;;;;;4997194;28;20034;-67
2022/04/10 12:07:22;;;;;;;6.97;2.65;;;18.20;99.90;;;;;;4999862;28;20037;-66
2022/04/10 12:09:51;;;;;;;;;;;18.10;99.90;;;;;;4999469;28;20359;-67
2022/04/10 12:12:22;;;;;;;4.70;2.65;;;18.10;99.90;;;;;;5000846;28;20288;-68
2022/04/10 12:14:49;;;;;;;6.60;2.47;;;18.10;99.90;;;;;;4998772;28;20229;-70
2022/04/10 12:17:21;;;;;;;8.68;2.88;;;18.10;99.90;;;;;;4999646;28;20025;-64
2022/04/10 12:19:53;;;;;;;9.85;2.95;;;18.20;99.90;;;;;;5000984;28;20112;-69
2022/04/10 12:22:24;;;;;;;9.18;3.15;;;18.20;99.90;;;;;;5001491;28;20014;-69
2022/04/10 12:24:59;;;;;;;8.43;2.80;;;18.30;99.90;;;;;;4986142;28;20048;-69
2022/04/10 12:27:26;;;;;;;6.90;2.10;;;18.20;99.90;;;;;;5003900;28;20025;-69
2022/04/10 12:29:55;;;;;;;5.55;2.53;;;18.10;99.90;;;;;;5008546;28;20393;-66
2022/04/10 12:32:24;;;;;;;5.70;3.53;;;18.00;99.90;;;;;;5005240;28;20022;-65
2022/04/10 12:34:53;;;;;;;9.82;2.65;;;17.90;99.90;;;;;;5008121;28;20026;-65
2022/04/10 12:37:20;;;;;;;8.60;3.00;;;17.80;99.90;;;;;;5010424;28;20046;-67
2022/04/10 12:39:48;;;;;;;7.28;2.33;;;17.80;99.90;;;;;;5008763;28;20026;-66
2022/04/10 12:42:25;;;;;;;9.30;3.05;;;17.80;99.90;;;;;;5018578;28;20057;-65
2022/04/10 12:45:03;;;;;;;9.00;2.60;;;17.80;99.90;;;;;;5009549;28;20034;-66
2022/04/10 12:47:46;;;;;;;8.52;3.10;;;17.70;99.90;;;;;;4992132;28;20029;-70
2022/04/10 12:50:16;;;;;;;9.43;3.88;;;17.80;99.90;;;;;;5009705;28;20112;-64
2022/04/10 12:52:44;;;;;;;8.98;3.35;;;17.80;99.90;;;;;;5007404;28;20033;-69
2022/04/10 12:55:27;;;;;;;5.97;2.55;;;17.80;99.90;;;;;;5007811;28;20091;-64
2022/04/10 12:58:05;;;;;;;12.65;3.55;;;17.80;99.90;;;;;;5007686;28;20026;-70
2022/04/10 13:00:37;;;;;;;8.07;3.08;;;17.80;99.90;;;;;;5009249;28;20021;-65
2022/04/10 13:03:47;;;;;;;7.88;2.97;;;17.80;99.90;;;;;;5009203;28;20025;-65